createdAt,value
2023-03-31T00:09:33.493Z,0.90
2023-03-31T00:19:36.383Z,0.73
2023-03-31T00:29:41.503Z,1.00
2023-03-31T00:39:43.654Z,0.73
2023-03-31T00:49:48.299Z,0.90
2023-03-31T00:59:53.107Z,0.93
2023-03-31T01:10:00.054Z,1.10
2023-03-31T01:20:34.570Z,0.65
2023-03-31T01:31:15.411Z,0.70
2023-03-31T01:41:36.184Z,0.82
2023-03-31T01:51:51.883Z,1.77
2023-03-31T02:01:58.413Z,1.43
2023-03-31T02:12:03.843Z,0.83
2023-03-31T02:22:07.924Z,0.80
2023-03-31T02:32:24.315Z,1.20
2023-03-31T02:42:28.335Z,0.90
2023-03-31T02:52:40.707Z,1.00
2023-03-31T03:02:57.896Z,1.30
2023-03-31T03:13:18.628Z,1.23
2023-03-31T03:23:20.727Z,1.50
2023-03-31T03:33:24.941Z,2.05
2023-03-31T03:43:27.065Z,1.40
2023-03-31T03:53:29.169Z,1.43
2023-03-31T04:03:31.254Z,1.13
2023-03-31T04:13:33.328Z,0.50
2023-03-31T04:23:42.722Z,0.67
2023-03-31T04:33:46.037Z,1.00
2023-03-31T04:43:48.169Z,0.80
2023-03-31T04:53:50.375Z,0.90
2023-03-31T05:03:52.505Z,0.70
2023-03-31T05:13:54.838Z,0.93
2023-03-31T05:23:57.876Z,0.70
2023-03-31T05:33:59.957Z,1.07
2023-03-31T05:44:05.072Z,0.90
2023-03-31T05:54:07.300Z,0.60
2023-03-31T06:04:09.642Z,1.07
2023-03-31T06:14:11.998Z,0.73
2023-03-31T06:24:14.086Z,0.70
2023-03-31T06:34:17.821Z,0.63
2023-03-31T06:44:23.083Z,0.30
2023-03-31T06:54:25.257Z,0.30
2023-03-31T07:04:27.483Z,0.90
2023-03-31T07:14:29.541Z,0.50
2023-03-31T07:24:31.652Z,0.40
2023-03-31T07:34:35.539Z,0.40
2023-03-31T07:44:39.615Z,0.30
2023-03-31T07:54:42.042Z,0.70
2023-03-31T08:04:45.286Z,0.47
2023-03-31T08:14:47.360Z,0.60
2023-03-31T08:24:49.451Z,0.33
2023-03-31T08:34:51.634Z,0.53
2023-03-31T08:45:09.277Z,0.20
2023-03-31T08:55:17.055Z,0.47
2023-03-31T09:05:57.221Z,0.43
2023-03-31T09:16:16.621Z,0.63
2023-03-31T09:26:49.403Z,0.97
2023-03-31T09:36:52.419Z,1.00
2023-03-31T09:46:55.579Z,0.55
2023-03-31T09:56:57.819Z,0.80
2023-03-31T10:07:01.081Z,0.60
2023-03-31T10:17:06.509Z,0.70
2023-03-31T10:27:21.122Z,1.13
2023-03-31T10:37:26.204Z,1.10
2023-03-31T10:47:33.248Z,2.20
2023-03-31T10:57:45.280Z,1.60
2023-03-31T11:08:12.313Z,2.58
2023-03-31T11:18:52.910Z,2.45
2023-03-31T11:29:01.238Z,1.75
2023-03-31T11:39:30.432Z,0.80
2023-03-31T11:49:39.124Z,0.40
2023-03-31T11:59:43.084Z,0.80
2023-03-31T12:10:05.760Z,0.90
2023-03-31T12:20:35.052Z,0.70
2023-03-31T12:30:42.012Z,0.90
2023-03-31T12:41:05.330Z,0.80
2023-03-31T12:51:13.606Z,1.00
2023-03-31T13:01:23.732Z,1.10
2023-03-31T13:11:38.268Z,0.90
2023-03-31T13:21:54.524Z,1.23
2023-03-31T13:32:02.899Z,1.52
2023-03-31T13:42:26.677Z,2.00
2023-03-31T13:52:44.118Z,1.67
2023-03-31T14:03:20.653Z,1.70
2023-03-31T14:13:25.255Z,1.35
2023-03-31T14:23:33.191Z,2.08
2023-03-31T14:33:46.352Z,2.30
2023-03-31T14:43:51.028Z,1.10
2023-03-31T14:53:59.714Z,1.23
2023-03-31T15:04:12.673Z,1.27
2023-03-31T15:14:14.804Z,0.68
2023-03-31T15:24:17.858Z,0.93
2023-03-31T15:34:30.721Z,1.00
2023-03-31T15:44:39.683Z,1.02
2023-03-31T15:54:42.159Z,0.98
2023-03-31T16:04:48.494Z,1.27
2023-03-31T16:15:07.528Z,0.87
2023-03-31T16:25:15.344Z,1.37
2023-03-31T16:35:17.615Z,0.80
2023-03-31T16:45:21.714Z,0.70
2023-03-31T16:55:24.274Z,0.93
2023-03-31T17:05:28.053Z,0.90
2023-03-31T17:15:30.592Z,0.87
2023-03-31T17:25:34.437Z,0.70
2023-03-31T17:35:37.155Z,1.13
2023-03-31T17:45:39.274Z,0.80
2023-03-31T17:55:41.426Z,1.13
2023-03-31T18:05:43.968Z,0.90
2023-03-31T18:15:49.086Z,0.80
2023-03-31T18:25:51.619Z,0.90
2023-03-31T18:35:54.148Z,0.68
2023-03-31T18:45:58.660Z,0.90
2023-03-31T18:56:01.330Z,0.77
2023-03-31T19:06:05.931Z,1.17
2023-03-31T19:16:08.437Z,0.60
2023-03-31T19:26:14.494Z,0.60
2023-03-31T19:36:16.976Z,0.63
2023-03-31T19:46:19.177Z,0.67
2023-03-31T19:56:25.071Z,0.40
2023-03-31T20:06:29.029Z,0.40
2023-03-31T20:16:31.595Z,0.97
2023-03-31T20:26:34.595Z,0.50
2023-03-31T20:36:36.695Z,0.90
2023-03-31T20:46:39.396Z,0.50
2023-03-31T20:56:41.723Z,0.60
2023-03-31T21:06:46.717Z,0.80
2023-03-31T21:16:49.126Z,0.80
2023-03-31T21:26:51.317Z,1.00
2023-03-31T21:36:54.003Z,0.87
2023-03-31T21:46:56.329Z,1.07
2023-03-31T21:56:58.849Z,0.80
2023-03-31T22:07:01.254Z,1.30
2023-03-31T22:17:03.824Z,1.20
2023-03-31T22:27:06.660Z,1.37
2023-03-31T22:37:08.940Z,0.70
2023-03-31T22:47:11.412Z,0.80
2023-03-31T22:57:14.656Z,0.90
2023-03-31T23:07:18.108Z,0.80
2023-03-31T23:17:21.385Z,0.60
2023-03-31T23:27:23.501Z,0.30
2023-03-31T23:37:28.403Z,0.40
2023-03-31T23:47:32.462Z,0.20
2023-03-31T23:57:34.578Z,0.30
